sensor_id;sensor_type;location;lat;lon;timestamp;pressure;altitude;pressure_sealevel;temperature;humidity
28606;BME280;46498;49.968;7.754;2023-03-03T00:03:03;97333.00;;;2.65;50.64
28606;BME280;46498;49.968;7.754;2023-03-03T00:08:05;97336.00;;;2.75;51.25
28606;BME280;46498;49.968;7.754;2023-03-03T00:13:15;97344.00;;;2.50;52.22
28606;BME280;46498;49.968;7.754;2023-03-03T00:18:32;97334.00;;;2.49;52.38
28606;BME280;46498;49.968;7.754;2023-03-03T00:23:39;97343.00;;;2.44;52.50
28606;BME280;46498;49.968;7.754;2023-03-03T00:28:45;97346.00;;;2.56;52.49
28606;BME280;46498;49.968;7.754;2023-03-03T00:33:52;97349.00;;;2.39;53.27
28606;BME280;46498;49.968;7.754;2023-03-03T00:39:16;97353.00;;;2.35;53.88
28606;BME280;46498;49.968;7.754;2023-03-03T00:44:39;97351.00;;;2.24;55.45
28606;BME280;46498;49.968;7.754;2023-03-03T00:49:41;97356.00;;;2.27;56.04
28606;BME280;46498;49.968;7.754;2023-03-03T00:54:42;97358.00;;;2.21;56.87
28606;BME280;46498;49.968;7.754;2023-03-03T00:59:43;97362.00;;;2.19;57.89
28606;BME280;46498;49.968;7.754;2023-03-03T01:04:49;97365.00;;;2.36;58.12
28606;BME280;46498;49.968;7.754;2023-03-03T01:09:50;97365.00;;;2.36;58.78
28606;BME280;46498;49.968;7.754;2023-03-03T01:14:51;97364.00;;;2.20;60.04
28606;BME280;46498;49.968;7.754;2023-03-03T01:19:54;97361.00;;;2.14;61.76
28606;BME280;46498;49.968;7.754;2023-03-03T01:24:55;97351.00;;;2.01;63.38
28606;BME280;46498;49.968;7.754;2023-03-03T01:29:58;97360.00;;;1.93;63.51
28606;BME280;46498;49.968;7.754;2023-03-03T01:34:59;97354.00;;;1.96;64.39
28606;BME280;46498;49.968;7.754;2023-03-03T01:40:00;97351.00;;;1.93;65.38
28606;BME280;46498;49.968;7.754;2023-03-03T01:45:21;97348.00;;;1.94;66.91
28606;BME280;46498;49.968;7.754;2023-03-03T01:50:39;97358.00;;;1.91;67.78
28606;BME280;46498;49.968;7.754;2023-03-03T01:55:42;97351.00;;;1.81;68.71
28606;BME280;46498;49.968;7.754;2023-03-03T02:00:48;97348.00;;;1.72;70.48
28606;BME280;46498;49.968;7.754;2023-03-03T02:05:54;97351.00;;;1.69;71.30
28606;BME280;46498;49.968;7.754;2023-03-03T02:10:57;97339.00;;;1.72;71.76
28606;BME280;46498;49.968;7.754;2023-03-03T02:15:58;97344.00;;;1.69;72.09
28606;BME280;46498;49.968;7.754;2023-03-03T02:21:22;97337.00;;;1.74;72.73
28606;BME280;46498;49.968;7.754;2023-03-03T02:26:25;97328.00;;;1.60;74.21
28606;BME280;46498;49.968;7.754;2023-03-03T02:31:30;97331.00;;;1.49;75.17
28606;BME280;46498;49.968;7.754;2023-03-03T02:36:34;97332.00;;;1.48;75.98
28606;BME280;46498;49.968;7.754;2023-03-03T02:41:42;97342.00;;;1.55;77.13
28606;BME280;46498;49.968;7.754;2023-03-03T02:46:48;97331.00;;;1.46;78.30
28606;BME280;46498;49.968;7.754;2023-03-03T02:51:50;97334.00;;;1.56;79.00
28606;BME280;46498;49.968;7.754;2023-03-03T02:56:51;97338.00;;;1.49;79.93
28606;BME280;46498;49.968;7.754;2023-03-03T03:01:54;97332.00;;;1.45;80.73
28606;BME280;46498;49.968;7.754;2023-03-03T03:06:56;97335.00;;;1.25;82.62
28606;BME280;46498;49.968;7.754;2023-03-03T03:11:57;97332.00;;;1.22;83.61
28606;BME280;46498;49.968;7.754;2023-03-03T03:17:02;97338.00;;;1.21;84.60
28606;BME280;46498;49.968;7.754;2023-03-03T03:22:04;97341.00;;;1.16;85.56
28606;BME280;46498;49.968;7.754;2023-03-03T03:27:06;97336.00;;;1.10;86.33
28606;BME280;46498;49.968;7.754;2023-03-03T03:32:08;97351.00;;;1.12;87.66
28606;BME280;46498;49.968;7.754;2023-03-03T03:37:09;97356.00;;;0.91;89.52
28606;BME280;46498;49.968;7.754;2023-03-03T03:42:11;97349.00;;;0.94;90.29
28606;BME280;46498;49.968;7.754;2023-03-03T03:47:13;97348.00;;;0.83;90.60
28606;BME280;46498;49.968;7.754;2023-03-03T03:52:14;97347.00;;;0.79;91.53
28606;BME280;46498;49.968;7.754;2023-03-03T03:57:15;97356.00;;;0.82;92.58
28606;BME280;46498;49.968;7.754;2023-03-03T04:02:17;97353.00;;;0.73;94.16
28606;BME280;46498;49.968;7.754;2023-03-03T04:07:19;97347.00;;;0.76;94.89
28606;BME280;46498;49.968;7.754;2023-03-03T04:12:20;97339.00;;;0.60;97.11
28606;BME280;46498;49.968;7.754;2023-03-03T04:17:21;97354.00;;;0.65;97.81
28606;BME280;46498;49.968;7.754;2023-03-03T04:22:25;97358.00;;;0.57;98.50
28606;BME280;46498;49.968;7.754;2023-03-03T04:27:26;97355.00;;;0.47;99.91
28606;BME280;46498;49.968;7.754;2023-03-03T04:32:27;97357.00;;;0.40;100.00
28606;BME280;46498;49.968;7.754;2023-03-03T04:37:28;97360.00;;;0.26;100.00
28606;BME280;46498;49.968;7.754;2023-03-03T04:42:30;97353.00;;;0.27;100.00
28606;BME280;46498;49.968;7.754;2023-03-03T04:47:31;97362.00;;;0.21;100.00
28606;BME280;46498;49.968;7.754;2023-03-03T04:52:32;97368.00;;;0.18;100.00
28606;BME280;46498;49.968;7.754;2023-03-03T04:57:33;97360.00;;;0.12;100.00
28606;BME280;46498;49.968;7.754;2023-03-03T05:02:34;97371.00;;;0.23;100.00
28606;BME280;46498;49.968;7.754;2023-03-03T05:07:36;97365.00;;;0.22;100.00
28606;BME280;46498;49.968;7.754;2023-03-03T05:12:36;97379.00;;;0.14;100.00
28606;BME280;46498;49.968;7.754;2023-03-03T05:17:37;97373.00;;;0.17;100.00
28606;BME280;46498;49.968;7.754;2023-03-03T05:22:38;97377.00;;;0.05;100.00
28606;BME280;46498;49.968;7.754;2023-03-03T05:27:39;97382.00;;;0.14;100.00
28606;BME280;46498;49.968;7.754;2023-03-03T05:32:40;97384.00;;;0.16;100.00
28606;BME280;46498;49.968;7.754;2023-03-03T05:37:41;97376.00;;;0.07;100.00
28606;BME280;46498;49.968;7.754;2023-03-03T05:42:46;97371.00;;;0.09;100.00
28606;BME280;46498;49.968;7.754;2023-03-03T05:47:47;97382.00;;;0.06;100.00
28606;BME280;46498;49.968;7.754;2023-03-03T05:52:49;97387.00;;;0.11;100.00
28606;BME280;46498;49.968;7.754;2023-03-03T05:57:51;97384.00;;;0.07;100.00
28606;BME280;46498;49.968;7.754;2023-03-03T06:02:51;97383.00;;;0.05;100.00
28606;BME280;46498;49.968;7.754;2023-03-03T06:07:52;97377.00;;;-0.07;100.00
28606;BME280;46498;49.968;7.754;2023-03-03T06:12:53;97376.00;;;-0.01;100.00
28606;BME280;46498;49.968;7.754;2023-03-03T06:17:54;97393.00;;;-0.09;100.00
28606;BME280;46498;49.968;7.754;2023-03-03T06:22:55;97388.00;;;-0.11;100.00
28606;BME280;46498;49.968;7.754;2023-03-03T06:27:56;97396.00;;;-0.07;100.00
28606;BME280;46498;49.968;7.754;2023-03-03T06:32:57;97398.00;;;0.06;100.00
28606;BME280;46498;49.968;7.754;2023-03-03T06:37:58;97397.00;;;0.11;100.00
28606;BME280;46498;49.968;7.754;2023-03-03T06:42:59;97407.00;;;0.23;100.00
28606;BME280;46498;49.968;7.754;2023-03-03T06:48:02;97418.00;;;0.32;100.00
28606;BME280;46498;49.968;7.754;2023-03-03T06:53:12;97420.00;;;0.39;100.00
28606;BME280;46498;49.968;7.754;2023-03-03T06:58:16;97418.00;;;0.53;100.00
28606;BME280;46498;49.968;7.754;2023-03-03T07:03:21;97437.00;;;0.65;100.00
28606;BME280;46498;49.968;7.754;2023-03-03T07:08:23;97448.00;;;0.63;100.00
28606;BME280;46498;49.968;7.754;2023-03-03T07:13:27;97440.00;;;0.65;100.00
28606;BME280;46498;49.968;7.754;2023-03-03T07:21:16;97449.00;;;0.87;100.00
28606;BME280;46498;49.968;7.754;2023-03-03T07:26:26;97451.00;;;1.01;100.00
28606;BME280;46498;49.968;7.754;2023-03-03T07:31:34;97466.00;;;1.29;100.00
28606;BME280;46498;49.968;7.754;2023-03-03T07:36:36;97465.00;;;1.41;100.00
28606;BME280;46498;49.968;7.754;2023-03-03T07:41:37;97473.00;;;1.49;100.00
28606;BME280;46498;49.968;7.754;2023-03-03T07:46:43;97481.00;;;1.51;100.00
28606;BME280;46498;49.968;7.754;2023-03-03T07:51:44;97480.00;;;1.47;100.00
28606;BME280;46498;49.968;7.754;2023-03-03T07:56:45;97490.00;;;1.55;100.00
28606;BME280;46498;49.968;7.754;2023-03-03T08:01:50;97499.00;;;1.59;99.46
28606;BME280;46498;49.968;7.754;2023-03-03T08:06:53;97517.00;;;1.58;99.88
28606;BME280;46498;49.968;7.754;2023-03-03T08:12:10;97521.00;;;1.71;99.22
28606;BME280;46498;49.968;7.754;2023-03-03T08:17:34;97526.00;;;1.82;98.16
28606;BME280;46498;49.968;7.754;2023-03-03T08:22:36;97525.00;;;1.86;98.64
28606;BME280;46498;49.968;7.754;2023-03-03T08:27:37;97531.00;;;1.98;96.91
28606;BME280;46498;49.968;7.754;2023-03-03T08:32:38;97527.00;;;2.12;95.59
28606;BME280;46498;49.968;7.754;2023-03-03T08:37:39;97536.00;;;2.18;94.56
28606;BME280;46498;49.968;7.754;2023-03-03T08:42:40;97544.00;;;2.30;94.80
28606;BME280;46498;49.968;7.754;2023-03-03T08:47:41;97548.00;;;2.03;94.58
28606;BME280;46498;49.968;7.754;2023-03-03T08:52:43;97541.00;;;2.09;94.99
28606;BME280;46498;49.968;7.754;2023-03-03T08:57:45;97546.00;;;2.36;92.96
28606;BME280;46498;49.968;7.754;2023-03-03T09:02:46;97552.00;;;2.27;94.29
28606;BME280;46498;49.968;7.754;2023-03-03T09:07:48;97553.00;;;2.39;92.98
28606;BME280;46498;49.968;7.754;2023-03-03T09:12:50;97554.00;;;2.62;91.95
28606;BME280;46498;49.968;7.754;2023-03-03T09:17:52;97561.00;;;2.96;89.01
28606;BME280;46498;49.968;7.754;2023-03-03T09:22:53;97563.00;;;3.19;88.45
28606;BME280;46498;49.968;7.754;2023-03-03T09:27:54;97558.00;;;3.09;86.37
28606;BME280;46498;49.968;7.754;2023-03-03T09:32:55;97568.00;;;3.17;87.60
28606;BME280;46498;49.968;7.754;2023-03-03T09:37:57;97564.00;;;3.28;84.09
28606;BME280;46498;49.968;7.754;2023-03-03T09:43:03;97578.00;;;3.15;86.67
28606;BME280;46498;49.968;7.754;2023-03-03T09:49:14;97577.00;;;3.52;85.04
28606;BME280;46498;49.968;7.754;2023-03-03T10:06:48;97590.00;;;4.58;78.73
28606;BME280;46498;49.968;7.754;2023-03-03T10:12:09;97600.00;;;4.49;79.55
28606;BME280;46498;49.968;7.754;2023-03-03T10:19:50;97606.00;;;5.06;74.89
28606;BME280;46498;49.968;7.754;2023-03-03T10:25:40;97614.00;;;5.11;72.37
28606;BME280;46498;49.968;7.754;2023-03-03T10:39:32;97630.00;;;6.09;66.35
28606;BME280;46498;49.968;7.754;2023-03-03T10:45:07;97634.00;;;6.25;63.12
28606;BME280;46498;49.968;7.754;2023-03-03T10:50:26;97638.00;;;5.81;63.56
28606;BME280;46498;49.968;7.754;2023-03-03T10:57:41;97638.00;;;5.31;67.83
28606;BME280;46498;49.968;7.754;2023-03-03T11:03:18;97637.00;;;5.00;68.70
28606;BME280;46498;49.968;7.754;2023-03-03T11:08:38;97625.00;;;5.75;67.75
28606;BME280;46498;49.968;7.754;2023-03-03T11:13:50;97626.00;;;5.89;63.05
28606;BME280;46498;49.968;7.754;2023-03-03T11:19:53;97630.00;;;6.00;64.70
28606;BME280;46498;49.968;7.754;2023-03-03T11:28:28;97638.00;;;6.14;64.60
28606;BME280;46498;49.968;7.754;2023-03-03T11:33:56;97640.00;;;5.70;67.34
28606;BME280;46498;49.968;7.754;2023-03-03T11:39:04;97651.00;;;5.93;64.66
28606;BME280;46498;49.968;7.754;2023-03-03T11:44:26;97645.00;;;5.63;64.71
28606;BME280;46498;49.968;7.754;2023-03-03T11:51:02;97639.00;;;6.01;64.07
28606;BME280;46498;49.968;7.754;2023-03-03T11:56:48;97641.00;;;6.38;66.31
28606;BME280;46498;49.968;7.754;2023-03-03T12:01:56;97638.00;;;6.92;61.06
28606;BME280;46498;49.968;7.754;2023-03-03T12:07:13;97629.00;;;6.43;61.50
28606;BME280;46498;49.968;7.754;2023-03-03T12:12:29;97631.00;;;6.32;63.70
28606;BME280;46498;49.968;7.754;2023-03-03T12:18:08;97616.00;;;6.49;66.74
28606;BME280;46498;49.968;7.754;2023-03-03T12:23:45;97610.00;;;7.09;61.33
28606;BME280;46498;49.968;7.754;2023-03-03T12:28:57;97602.00;;;7.78;57.83
28606;BME280;46498;49.968;7.754;2023-03-03T12:34:23;97602.00;;;7.85;56.79
28606;BME280;46498;49.968;7.754;2023-03-03T12:47:50;97583.00;;;7.83;54.06
28606;BME280;46498;49.968;7.754;2023-03-03T12:53:07;97581.00;;;8.89;51.55
28606;BME280;46498;49.968;7.754;2023-03-03T12:58:38;97575.00;;;9.24;49.50
28606;BME280;46498;49.968;7.754;2023-03-03T13:05:37;97584.00;;;9.88;49.20
28606;BME280;46498;49.968;7.754;2023-03-03T13:12:23;97569.00;;;10.34;46.66
28606;BME280;46498;49.968;7.754;2023-03-03T13:25:55;97554.00;;;10.00;49.15
28606;BME280;46498;49.968;7.754;2023-03-03T13:31:04;97550.00;;;9.60;50.50
28606;BME280;46498;49.968;7.754;2023-03-03T13:36:09;97555.00;;;9.89;48.56
28606;BME280;46498;49.968;7.754;2023-03-03T13:41:28;97550.00;;;9.68;50.04
28606;BME280;46498;49.968;7.754;2023-03-03T13:46:39;97554.00;;;10.00;49.12
28606;BME280;46498;49.968;7.754;2023-03-03T13:51:52;97558.00;;;10.34;48.27
28606;BME280;46498;49.968;7.754;2023-03-03T14:05:34;97554.00;;;10.60;46.87
28606;BME280;46498;49.968;7.754;2023-03-03T14:10:48;97538.00;;;9.87;48.99
28606;BME280;46498;49.968;7.754;2023-03-03T14:16:09;97531.00;;;10.03;48.54
28606;BME280;46498;49.968;7.754;2023-03-03T14:21:30;97539.00;;;10.19;48.11
28606;BME280;46498;49.968;7.754;2023-03-03T14:26:49;97532.00;;;9.87;49.70
28606;BME280;46498;49.968;7.754;2023-03-03T14:31:51;97531.00;;;9.65;49.58
28606;BME280;46498;49.968;7.754;2023-03-03T14:36:58;97524.00;;;9.66;50.58
28606;BME280;46498;49.968;7.754;2023-03-03T14:42:05;97529.00;;;9.53;50.70
28606;BME280;46498;49.968;7.754;2023-03-03T14:47:25;97531.00;;;9.44;50.41
28606;BME280;46498;49.968;7.754;2023-03-03T14:52:32;97530.00;;;9.04;51.21
28606;BME280;46498;49.968;7.754;2023-03-03T14:57:41;97529.00;;;9.36;51.04
28606;BME280;46498;49.968;7.754;2023-03-03T15:03:30;97526.00;;;9.13;51.84
28606;BME280;46498;49.968;7.754;2023-03-03T15:08:36;97517.00;;;8.84;52.39
28606;BME280;46498;49.968;7.754;2023-03-03T15:13:38;97522.00;;;8.50;53.75
28606;BME280;46498;49.968;7.754;2023-03-03T15:29:28;97522.00;;;7.53;58.01
28606;BME280;46498;49.968;7.754;2023-03-03T15:36:16;97516.00;;;7.21;57.84
28606;BME280;46498;49.968;7.754;2023-03-03T15:41:39;97518.00;;;7.31;60.00
28606;BME280;46498;49.968;7.754;2023-03-03T15:47:23;97513.00;;;7.16;60.06
28606;BME280;46498;49.968;7.754;2023-03-03T15:52:44;97515.00;;;7.01;60.06
28606;BME280;46498;49.968;7.754;2023-03-03T15:58:23;97520.00;;;6.77;60.95
28606;BME280;46498;49.968;7.754;2023-03-03T16:03:34;97513.00;;;6.57;62.51
28606;BME280;46498;49.968;7.754;2023-03-03T16:10:10;97530.00;;;6.54;62.48
28606;BME280;46498;49.968;7.754;2023-03-03T16:16:58;97532.00;;;6.40;63.11
28606;BME280;46498;49.968;7.754;2023-03-03T16:29:44;97533.00;;;5.65;67.44
28606;BME280;46498;49.968;7.754;2023-03-03T16:35:09;97547.00;;;5.25;69.97
28606;BME280;46498;49.968;7.754;2023-03-03T16:40:22;97549.00;;;5.02;71.69
28606;BME280;46498;49.968;7.754;2023-03-03T16:45:27;97549.00;;;4.87;73.19
28606;BME280;46498;49.968;7.754;2023-03-03T17:08:09;97557.00;;;3.92;78.83
28606;BME280;46498;49.968;7.754;2023-03-03T17:14:50;97571.00;;;3.89;78.86
28606;BME280;46498;49.968;7.754;2023-03-03T17:37:05;97582.00;;;2.93;85.26
28606;BME280;46498;49.968;7.754;2023-03-03T17:42:22;97589.00;;;2.79;86.58
28606;BME280;46498;49.968;7.754;2023-03-03T17:59:17;97605.00;;;2.15;91.61
28606;BME280;46498;49.968;7.754;2023-03-03T18:05:03;97612.00;;;1.81;94.38
28606;BME280;46498;49.968;7.754;2023-03-03T18:10:43;97615.00;;;1.71;95.50
28606;BME280;46498;49.968;7.754;2023-03-03T18:24:34;97631.00;;;1.43;97.64
28606;BME280;46498;49.968;7.754;2023-03-03T18:29:36;97629.00;;;1.32;98.54
28606;BME280;46498;49.968;7.754;2023-03-03T18:34:39;97637.00;;;1.20;99.34
28606;BME280;46498;49.968;7.754;2023-03-03T18:39:47;97638.00;;;1.21;99.31
28606;BME280;46498;49.968;7.754;2023-03-03T18:44:49;97639.00;;;1.14;99.97
28606;BME280;46498;49.968;7.754;2023-03-03T18:49:56;97642.00;;;0.95;100.00
28606;BME280;46498;49.968;7.754;2023-03-03T18:55:23;97655.00;;;0.94;100.00
28606;BME280;46498;49.968;7.754;2023-03-03T19:00:29;97665.00;;;0.83;100.00
28606;BME280;46498;49.968;7.754;2023-03-03T19:05:36;97663.00;;;0.85;100.00
28606;BME280;46498;49.968;7.754;2023-03-03T19:11:05;97665.00;;;0.77;100.00
28606;BME280;46498;49.968;7.754;2023-03-03T19:16:29;97665.00;;;0.80;100.00
28606;BME280;46498;49.968;7.754;2023-03-03T19:21:35;97662.00;;;0.48;100.00
28606;BME280;46498;49.968;7.754;2023-03-03T19:26:55;97659.00;;;0.46;100.00
28606;BME280;46498;49.968;7.754;2023-03-03T19:38:14;97666.00;;;0.40;100.00
28606;BME280;46498;49.968;7.754;2023-03-03T19:43:53;97675.00;;;0.39;100.00
28606;BME280;46498;49.968;7.754;2023-03-03T20:03:37;97678.00;;;0.33;100.00
28606;BME280;46498;49.968;7.754;2023-03-03T20:16:35;97684.00;;;0.17;100.00
28606;BME280;46498;49.968;7.754;2023-03-03T20:23:21;97695.00;;;0.02;100.00
28606;BME280;46498;49.968;7.754;2023-03-03T20:35:27;97700.00;;;-0.12;100.00
28606;BME280;46498;49.968;7.754;2023-03-03T20:40:39;97702.00;;;-0.19;100.00
28606;BME280;46498;49.968;7.754;2023-03-03T20:45:59;97699.00;;;-0.21;100.00
28606;BME280;46498;49.968;7.754;2023-03-03T20:52:02;97706.00;;;-0.29;100.00
28606;BME280;46498;49.968;7.754;2023-03-03T20:57:19;97707.00;;;-0.38;100.00
28606;BME280;46498;49.968;7.754;2023-03-03T21:05:07;97698.00;;;-0.42;100.00
28606;BME280;46498;49.968;7.754;2023-03-03T21:10:17;97704.00;;;-0.41;100.00
28606;BME280;46498;49.968;7.754;2023-03-03T21:15:32;97708.00;;;-0.41;100.00
28606;BME280;46498;49.968;7.754;2023-03-03T21:20:35;97695.00;;;-0.44;100.00
28606;BME280;46498;49.968;7.754;2023-03-03T21:25:44;97701.00;;;-0.32;100.00
28606;BME280;46498;49.968;7.754;2023-03-03T21:37:41;97685.00;;;-0.52;100.00
28606;BME280;46498;49.968;7.754;2023-03-03T21:42:42;97703.00;;;-0.54;100.00
28606;BME280;46498;49.968;7.754;2023-03-03T21:47:45;97709.00;;;-0.60;100.00
28606;BME280;46498;49.968;7.754;2023-03-03T21:52:47;97705.00;;;-0.51;100.00
28606;BME280;46498;49.968;7.754;2023-03-03T21:57:48;97711.00;;;-0.50;100.00
28606;BME280;46498;49.968;7.754;2023-03-03T22:02:49;97709.00;;;-0.56;100.00
28606;BME280;46498;49.968;7.754;2023-03-03T22:07:49;97706.00;;;-0.58;100.00
28606;BME280;46498;49.968;7.754;2023-03-03T22:12:50;97714.00;;;-0.60;100.00
28606;BME280;46498;49.968;7.754;2023-03-03T22:17:51;97705.00;;;-0.57;100.00
28606;BME280;46498;49.968;7.754;2023-03-03T22:22:52;97708.00;;;-0.63;100.00
28606;BME280;46498;49.968;7.754;2023-03-03T22:27:53;97705.00;;;-0.54;100.00
28606;BME280;46498;49.968;7.754;2023-03-03T22:32:54;97707.00;;;-0.56;100.00
28606;BME280;46498;49.968;7.754;2023-03-03T22:37:55;97707.00;;;-0.65;100.00
28606;BME280;46498;49.968;7.754;2023-03-03T22:42:59;97710.00;;;-0.76;100.00
28606;BME280;46498;49.968;7.754;2023-03-03T22:48:00;97710.00;;;-0.81;100.00
28606;BME280;46498;49.968;7.754;2023-03-03T22:53:01;97704.00;;;-0.75;100.00
28606;BME280;46498;49.968;7.754;2023-03-03T22:58:06;97710.00;;;-0.75;100.00
28606;BME280;46498;49.968;7.754;2023-03-03T23:03:10;97709.00;;;-0.80;100.00
28606;BME280;46498;49.968;7.754;2023-03-03T23:08:13;97694.00;;;-0.81;100.00
28606;BME280;46498;49.968;7.754;2023-03-03T23:13:14;97707.00;;;-0.73;100.00
28606;BME280;46498;49.968;7.754;2023-03-03T23:18:15;97695.00;;;-0.86;100.00
28606;BME280;46498;49.968;7.754;2023-03-03T23:23:16;97702.00;;;-0.90;100.00
28606;BME280;46498;49.968;7.754;2023-03-03T23:28:17;97694.00;;;-0.78;100.00
28606;BME280;46498;49.968;7.754;2023-03-03T23:33:19;97694.00;;;-0.71;100.00
28606;BME280;46498;49.968;7.754;2023-03-03T23:38:19;97689.00;;;-0.70;100.00
28606;BME280;46498;49.968;7.754;2023-03-03T23:43:20;97682.00;;;-0.72;100.00
28606;BME280;46498;49.968;7.754;2023-03-03T23:48:21;97686.00;;;-0.90;100.00
28606;BME280;46498;49.968;7.754;2023-03-03T23:53:22;97684.00;;;-0.81;100.00
28606;BME280;46498;49.968;7.754;2023-03-03T23:58:23;97690.00;;;-0.75;100.00
